KTOI/TOI METAR and TAF weather

Enter ICAO airport designator
Station Type Date Time Source
KTOI METAR 2020/06/02 17:53 UTC NOAA

KTOI 021753Z AUTO 14007KT 10SM FEW022 BKN028 27/21 A3018 RMK AO2 SLP212 T02720206 10278 20228 58008


Station Type Date Time Source
KTOI Decoded METAR 2020/06/02 17:53 UTC NOAA

TROY MUNICIPAL AIRPORT, AL, United States (KTOI) 31-52N 086-01W 118M
Jun 02, 2020 - 01:53 PM EDT / 2020.06.02 1753 UTC
Wind: from the SE (140 degrees) at 8 MPH (7 KT):0
Visibility: 10 mile(s):0
Sky conditions: mostly cloudy
Temperature: 81.0 F (27.2 C)
Dew Point: 69.1 F (20.6 C)
Relative Humidity: 67%
Pressure (altimeter): 30.18 in. Hg (1022 hPa)
Pressure tendency: 0.02 inches (0.8 hPa) lower than three hours ago
ob: KTOI 021753Z AUTO 14007KT 10SM FEW022 BKN028 27/21 A3018 RMK AO2 SLP212 T02720206 10278 20228 58008
cycle: 18

Station Type Date Time Source
KTOI TAF 2020/06/02 18:22 UTC NOAA

TAF KTOI 021720Z 0218/0318 12009KT P6SM SCT025 BKN035
FM022100 13006KT P6SM VCTS BKN100CB
FM030000 15005KT P6SM BKN100

Example: see airport list